sensor_id;sensor_type;location;lat;lon;timestamp;P1;durP1;ratioP1;P2;durP2;ratioP2
6979;SDS011;3530;52.832;10.680;2023-04-25T00:00:12;6.53;;;3.65;;
6979;SDS011;3530;52.832;10.680;2023-04-25T00:02:57;5.07;;;4.68;;
6979;SDS011;3530;52.832;10.680;2023-04-25T00:05:44;6.65;;;4.22;;
6979;SDS011;3530;52.832;10.680;2023-04-25T00:08:30;6.53;;;3.85;;
6979;SDS011;3530;52.832;10.680;2023-04-25T00:11:16;6.60;;;4.10;;
6979;SDS011;3530;52.832;10.680;2023-04-25T00:14:01;3.60;;;3.17;;
6979;SDS011;3530;52.832;10.680;2023-04-25T00:16:48;7.05;;;4.13;;
6979;SDS011;3530;52.832;10.680;2023-04-25T00:19:33;5.45;;;3.95;;
6979;SDS011;3530;52.832;10.680;2023-04-25T00:22:20;4.72;;;4.20;;
6979;SDS011;3530;52.832;10.680;2023-04-25T00:25:06;6.72;;;4.70;;
6979;SDS011;3530;52.832;10.680;2023-04-25T00:27:52;3.92;;;3.58;;
6979;SDS011;3530;52.832;10.680;2023-04-25T00:30:38;3.58;;;2.92;;
6979;SDS011;3530;52.832;10.680;2023-04-25T00:33:24;4.07;;;3.35;;
6979;SDS011;3530;52.832;10.680;2023-04-25T00:36:10;3.78;;;2.75;;
6979;SDS011;3530;52.832;10.680;2023-04-25T00:38:56;2.80;;;2.60;;
6979;SDS011;3530;52.832;10.680;2023-04-25T00:41:42;5.90;;;3.40;;
6979;SDS011;3530;52.832;10.680;2023-04-25T00:44:29;3.20;;;3.00;;
6979;SDS011;3530;52.832;10.680;2023-04-25T00:47:15;7.47;;;2.92;;
6979;SDS011;3530;52.832;10.680;2023-04-25T00:50:01;3.30;;;3.00;;
6979;SDS011;3530;52.832;10.680;2023-04-25T00:52:46;4.72;;;3.00;;
6979;SDS011;3530;52.832;10.680;2023-04-25T00:55:32;2.63;;;2.47;;
6979;SDS011;3530;52.832;10.680;2023-04-25T00:58:20;5.40;;;2.72;;
6979;SDS011;3530;52.832;10.680;2023-04-25T01:01:06;3.85;;;3.55;;
6979;SDS011;3530;52.832;10.680;2023-04-25T01:03:52;3.05;;;2.35;;
6979;SDS011;3530;52.832;10.680;2023-04-25T01:06:39;7.35;;;2.67;;
6979;SDS011;3530;52.832;10.680;2023-04-25T01:09:25;2.75;;;2.55;;
6979;SDS011;3530;52.832;10.680;2023-04-25T01:12:11;5.80;;;2.85;;
6979;SDS011;3530;52.832;10.680;2023-04-25T01:14:57;2.92;;;2.60;;
6979;SDS011;3530;52.832;10.680;2023-04-25T01:17:42;2.60;;;2.40;;
6979;SDS011;3530;52.832;10.680;2023-04-25T01:20:29;4.25;;;2.38;;
6979;SDS011;3530;52.832;10.680;2023-04-25T01:23:18;2.92;;;2.60;;
6979;SDS011;3530;52.832;10.680;2023-04-25T01:26:04;2.90;;;2.50;;
6979;SDS011;3530;52.832;10.680;2023-04-25T01:28:54;2.75;;;2.65;;
6979;SDS011;3530;52.832;10.680;2023-04-25T01:31:40;3.80;;;3.28;;
6979;SDS011;3530;52.832;10.680;2023-04-25T01:34:26;2.55;;;2.35;;
6979;SDS011;3530;52.832;10.680;2023-04-25T01:37:11;4.22;;;2.40;;
6979;SDS011;3530;52.832;10.680;2023-04-25T01:39:57;2.30;;;2.20;;
6979;SDS011;3530;52.832;10.680;2023-04-25T01:42:43;3.67;;;2.70;;
6979;SDS011;3530;52.832;10.680;2023-04-25T01:45:29;4.80;;;2.63;;
6979;SDS011;3530;52.832;10.680;2023-04-25T01:48:14;2.83;;;2.63;;
6979;SDS011;3530;52.832;10.680;2023-04-25T01:51:00;3.95;;;2.90;;
6979;SDS011;3530;52.832;10.680;2023-04-25T01:53:46;5.47;;;3.20;;
6979;SDS011;3530;52.832;10.680;2023-04-25T01:56:32;2.80;;;2.60;;
6979;SDS011;3530;52.832;10.680;2023-04-25T01:59:18;3.78;;;3.42;;
6979;SDS011;3530;52.832;10.680;2023-04-25T02:02:05;3.25;;;2.90;;
6979;SDS011;3530;52.832;10.680;2023-04-25T02:04:51;2.85;;;2.60;;
6979;SDS011;3530;52.832;10.680;2023-04-25T02:07:37;3.72;;;3.50;;
6979;SDS011;3530;52.832;10.680;2023-04-25T02:10:23;3.55;;;2.97;;
6979;SDS011;3530;52.832;10.680;2023-04-25T02:13:08;4.28;;;2.60;;
6979;SDS011;3530;52.832;10.680;2023-04-25T02:15:54;5.15;;;3.40;;
6979;SDS011;3530;52.832;10.680;2023-04-25T02:18:40;3.40;;;3.10;;
6979;SDS011;3530;52.832;10.680;2023-04-25T02:21:25;3.88;;;3.10;;
6979;SDS011;3530;52.832;10.680;2023-04-25T02:24:11;4.65;;;3.20;;
6979;SDS011;3530;52.832;10.680;2023-04-25T02:26:57;4.35;;;2.95;;
6979;SDS011;3530;52.832;10.680;2023-04-25T02:29:43;3.83;;;3.22;;
6979;SDS011;3530;52.832;10.680;2023-04-25T02:32:28;4.22;;;2.58;;
6979;SDS011;3530;52.832;10.680;2023-04-25T02:35:14;3.00;;;2.75;;
6979;SDS011;3530;52.832;10.680;2023-04-25T02:37:59;2.15;;;2.05;;
6979;SDS011;3530;52.832;10.680;2023-04-25T02:40:45;2.70;;;2.22;;
6979;SDS011;3530;52.832;10.680;2023-04-25T02:43:31;4.47;;;2.55;;
6979;SDS011;3530;52.832;10.680;2023-04-25T02:46:16;3.72;;;2.42;;
6979;SDS011;3530;52.832;10.680;2023-04-25T02:49:02;2.50;;;2.33;;
6979;SDS011;3530;52.832;10.680;2023-04-25T02:51:48;3.28;;;2.15;;
6979;SDS011;3530;52.832;10.680;2023-04-25T02:54:33;5.15;;;2.80;;
6979;SDS011;3530;52.832;10.680;2023-04-25T02:57:19;3.50;;;3.03;;
6979;SDS011;3530;52.832;10.680;2023-04-25T03:00:05;5.43;;;2.85;;
6979;SDS011;3530;52.832;10.680;2023-04-25T03:02:53;7.80;;;2.92;;
6979;SDS011;3530;52.832;10.680;2023-04-25T03:05:38;5.90;;;2.67;;
6979;SDS011;3530;52.832;10.680;2023-04-25T03:08:24;5.95;;;2.90;;
6979;SDS011;3530;52.832;10.680;2023-04-25T03:11:10;6.07;;;2.75;;
6979;SDS011;3530;52.832;10.680;2023-04-25T03:13:56;8.70;;;2.83;;
6979;SDS011;3530;52.832;10.680;2023-04-25T03:16:41;6.90;;;2.58;;
6979;SDS011;3530;52.832;10.680;2023-04-25T03:19:27;8.77;;;2.85;;
6979;SDS011;3530;52.832;10.680;2023-04-25T03:22:13;5.45;;;2.55;;
6979;SDS011;3530;52.832;10.680;2023-04-25T03:24:58;9.10;;;3.03;;
6979;SDS011;3530;52.832;10.680;2023-04-25T03:27:44;9.27;;;2.97;;
6979;SDS011;3530;52.832;10.680;2023-04-25T03:30:30;8.73;;;3.22;;
6979;SDS011;3530;52.832;10.680;2023-04-25T03:33:15;6.53;;;2.85;;
6979;SDS011;3530;52.832;10.680;2023-04-25T03:36:01;5.25;;;2.83;;
6979;SDS011;3530;52.832;10.680;2023-04-25T03:38:47;6.93;;;3.00;;
6979;SDS011;3530;52.832;10.680;2023-04-25T03:41:33;4.90;;;3.10;;
6979;SDS011;3530;52.832;10.680;2023-04-25T03:44:19;10.05;;;3.83;;
6979;SDS011;3530;52.832;10.680;2023-04-25T03:47:04;6.63;;;2.60;;
6979;SDS011;3530;52.832;10.680;2023-04-25T03:49:51;8.82;;;3.05;;
6979;SDS011;3530;52.832;10.680;2023-04-25T03:52:37;8.05;;;3.50;;
6979;SDS011;3530;52.832;10.680;2023-04-25T03:55:22;10.98;;;4.72;;
6979;SDS011;3530;52.832;10.680;2023-04-25T03:58:08;9.77;;;3.42;;
6979;SDS011;3530;52.832;10.680;2023-04-25T04:00:54;5.18;;;2.55;;
6979;SDS011;3530;52.832;10.680;2023-04-25T04:03:39;6.43;;;3.00;;
6979;SDS011;3530;52.832;10.680;2023-04-25T04:06:25;5.95;;;3.33;;
6979;SDS011;3530;52.832;10.680;2023-04-25T04:09:11;6.70;;;3.38;;
6979;SDS011;3530;52.832;10.680;2023-04-25T04:11:57;10.35;;;3.72;;
6979;SDS011;3530;52.832;10.680;2023-04-25T04:14:43;6.60;;;3.25;;
6979;SDS011;3530;52.832;10.680;2023-04-25T04:17:29;9.82;;;3.22;;
6979;SDS011;3530;52.832;10.680;2023-04-25T04:20:15;6.22;;;3.20;;
6979;SDS011;3530;52.832;10.680;2023-04-25T04:23:01;7.63;;;4.00;;
6979;SDS011;3530;52.832;10.680;2023-04-25T04:25:46;8.02;;;2.55;;
6979;SDS011;3530;52.832;10.680;2023-04-25T04:28:33;7.47;;;3.40;;
6979;SDS011;3530;52.832;10.680;2023-04-25T04:31:18;5.50;;;2.67;;
6979;SDS011;3530;52.832;10.680;2023-04-25T04:34:04;7.95;;;3.78;;
6979;SDS011;3530;52.832;10.680;2023-04-25T04:36:51;15.65;;;3.60;;
6979;SDS011;3530;52.832;10.680;2023-04-25T04:39:36;16.35;;;4.25;;
6979;SDS011;3530;52.832;10.680;2023-04-25T04:42:22;13.68;;;4.40;;
6979;SDS011;3530;52.832;10.680;2023-04-25T04:45:09;15.55;;;3.15;;
6979;SDS011;3530;52.832;10.680;2023-04-25T04:47:55;8.38;;;2.80;;
6979;SDS011;3530;52.832;10.680;2023-04-25T04:50:42;9.80;;;3.53;;
6979;SDS011;3530;52.832;10.680;2023-04-25T04:53:30;12.73;;;4.28;;
6979;SDS011;3530;52.832;10.680;2023-04-25T04:56:15;6.65;;;3.17;;
6979;SDS011;3530;52.832;10.680;2023-04-25T04:59:01;7.60;;;3.30;;
6979;SDS011;3530;52.832;10.680;2023-04-25T05:01:47;12.95;;;3.88;;
6979;SDS011;3530;52.832;10.680;2023-04-25T05:04:33;5.50;;;3.08;;
6979;SDS011;3530;52.832;10.680;2023-04-25T05:07:19;12.23;;;3.55;;
6979;SDS011;3530;52.832;10.680;2023-04-25T05:10:05;5.07;;;2.97;;
6979;SDS011;3530;52.832;10.680;2023-04-25T05:12:51;9.98;;;3.83;;
6979;SDS011;3530;52.832;10.680;2023-04-25T05:15:36;4.35;;;2.92;;
6979;SDS011;3530;52.832;10.680;2023-04-25T05:18:22;5.63;;;3.58;;
6979;SDS011;3530;52.832;10.680;2023-04-25T05:21:07;12.10;;;3.53;;
6979;SDS011;3530;52.832;10.680;2023-04-25T05:23:53;19.08;;;4.32;;
6979;SDS011;3530;52.832;10.680;2023-04-25T05:26:39;20.33;;;5.63;;
6979;SDS011;3530;52.832;10.680;2023-04-25T05:29:25;8.55;;;4.30;;
6979;SDS011;3530;52.832;10.680;2023-04-25T05:32:11;20.48;;;5.15;;
6979;SDS011;3530;52.832;10.680;2023-04-25T05:34:56;16.80;;;4.78;;
6979;SDS011;3530;52.832;10.680;2023-04-25T05:37:42;9.68;;;3.55;;
6979;SDS011;3530;52.832;10.680;2023-04-25T05:40:27;15.05;;;4.50;;
6979;SDS011;3530;52.832;10.680;2023-04-25T05:43:13;13.32;;;4.13;;
6979;SDS011;3530;52.832;10.680;2023-04-25T05:45:59;11.35;;;3.97;;
6979;SDS011;3530;52.832;10.680;2023-04-25T05:48:45;12.75;;;4.30;;
6979;SDS011;3530;52.832;10.680;2023-04-25T05:51:30;13.90;;;3.47;;
6979;SDS011;3530;52.832;10.680;2023-04-25T05:54:16;7.80;;;3.83;;
6979;SDS011;3530;52.832;10.680;2023-04-25T05:57:02;9.43;;;2.95;;
6979;SDS011;3530;52.832;10.680;2023-04-25T05:59:48;15.02;;;3.50;;
6979;SDS011;3530;52.832;10.680;2023-04-25T06:02:34;9.45;;;3.30;;
6979;SDS011;3530;52.832;10.680;2023-04-25T06:05:19;4.45;;;2.95;;
6979;SDS011;3530;52.832;10.680;2023-04-25T06:08:05;8.68;;;3.58;;
6979;SDS011;3530;52.832;10.680;2023-04-25T06:10:51;9.15;;;3.63;;
6979;SDS011;3530;52.832;10.680;2023-04-25T06:13:36;8.45;;;2.78;;
6979;SDS011;3530;52.832;10.680;2023-04-25T06:16:22;8.48;;;3.53;;
6979;SDS011;3530;52.832;10.680;2023-04-25T06:19:10;7.50;;;2.97;;
6979;SDS011;3530;52.832;10.680;2023-04-25T06:21:55;4.93;;;3.03;;
6979;SDS011;3530;52.832;10.680;2023-04-25T06:24:41;13.07;;;3.40;;
6979;SDS011;3530;52.832;10.680;2023-04-25T06:27:26;6.43;;;2.42;;
6979;SDS011;3530;52.832;10.680;2023-04-25T06:30:12;4.75;;;2.83;;
6979;SDS011;3530;52.832;10.680;2023-04-25T06:32:58;7.05;;;3.47;;
6979;SDS011;3530;52.832;10.680;2023-04-25T06:35:43;7.68;;;3.58;;
6979;SDS011;3530;52.832;10.680;2023-04-25T06:38:29;10.35;;;3.05;;
6979;SDS011;3530;52.832;10.680;2023-04-25T06:41:15;5.25;;;3.17;;
6979;SDS011;3530;52.832;10.680;2023-04-25T06:44:01;5.25;;;2.58;;
6979;SDS011;3530;52.832;10.680;2023-04-25T06:46:46;12.85;;;3.63;;
6979;SDS011;3530;52.832;10.680;2023-04-25T06:49:32;5.68;;;3.03;;
6979;SDS011;3530;52.832;10.680;2023-04-25T06:52:17;7.15;;;2.65;;
6979;SDS011;3530;52.832;10.680;2023-04-25T06:55:03;5.47;;;2.92;;
6979;SDS011;3530;52.832;10.680;2023-04-25T06:57:50;7.65;;;3.15;;
6979;SDS011;3530;52.832;10.680;2023-04-25T07:00:36;5.88;;;3.30;;
6979;SDS011;3530;52.832;10.680;2023-04-25T07:03:22;2.38;;;2.15;;
6979;SDS011;3530;52.832;10.680;2023-04-25T07:06:07;8.05;;;2.45;;
6979;SDS011;3530;52.832;10.680;2023-04-25T07:08:53;6.05;;;2.85;;
6979;SDS011;3530;52.832;10.680;2023-04-25T07:11:39;5.20;;;2.90;;
6979;SDS011;3530;52.832;10.680;2023-04-25T07:14:25;5.38;;;2.80;;
6979;SDS011;3530;52.832;10.680;2023-04-25T07:17:10;4.85;;;2.25;;
6979;SDS011;3530;52.832;10.680;2023-04-25T07:19:56;6.03;;;2.33;;
6979;SDS011;3530;52.832;10.680;2023-04-25T07:22:42;7.35;;;2.63;;
6979;SDS011;3530;52.832;10.680;2023-04-25T07:25:28;8.30;;;2.58;;
6979;SDS011;3530;52.832;10.680;2023-04-25T07:28:14;7.05;;;2.60;;
6979;SDS011;3530;52.832;10.680;2023-04-25T07:30:59;13.85;;;3.45;;
6979;SDS011;3530;52.832;10.680;2023-04-25T07:33:45;5.90;;;2.50;;
6979;SDS011;3530;52.832;10.680;2023-04-25T07:36:31;3.95;;;2.60;;
6979;SDS011;3530;52.832;10.680;2023-04-25T07:39:16;11.93;;;3.17;;
6979;SDS011;3530;52.832;10.680;2023-04-25T07:42:02;3.70;;;2.20;;
6979;SDS011;3530;52.832;10.680;2023-04-25T07:44:49;10.27;;;3.03;;
6979;SDS011;3530;52.832;10.680;2023-04-25T07:47:36;6.05;;;2.97;;
6979;SDS011;3530;52.832;10.680;2023-04-25T07:50:23;4.55;;;2.60;;
6979;SDS011;3530;52.832;10.680;2023-04-25T07:53:09;8.05;;;2.55;;
6979;SDS011;3530;52.832;10.680;2023-04-25T07:55:55;9.45;;;3.22;;
6979;SDS011;3530;52.832;10.680;2023-04-25T07:58:41;3.45;;;2.42;;
6979;SDS011;3530;52.832;10.680;2023-04-25T08:01:26;4.72;;;2.50;;
6979;SDS011;3530;52.832;10.680;2023-04-25T08:04:12;7.47;;;2.28;;
6979;SDS011;3530;52.832;10.680;2023-04-25T08:06:58;2.60;;;2.22;;
6979;SDS011;3530;52.832;10.680;2023-04-25T08:09:43;5.97;;;2.78;;
6979;SDS011;3530;52.832;10.680;2023-04-25T08:12:29;6.28;;;2.47;;
6979;SDS011;3530;52.832;10.680;2023-04-25T08:15:15;6.65;;;3.40;;
6979;SDS011;3530;52.832;10.680;2023-04-25T08:18:00;4.63;;;2.85;;
6979;SDS011;3530;52.832;10.680;2023-04-25T08:20:46;5.68;;;2.28;;
6979;SDS011;3530;52.832;10.680;2023-04-25T08:23:32;3.97;;;2.28;;
6979;SDS011;3530;52.832;10.680;2023-04-25T08:26:17;6.45;;;3.05;;
6979;SDS011;3530;52.832;10.680;2023-04-25T08:29:03;10.13;;;3.65;;
6979;SDS011;3530;52.832;10.680;2023-04-25T08:31:49;2.65;;;2.30;;
6979;SDS011;3530;52.832;10.680;2023-04-25T08:34:35;2.97;;;2.53;;
6979;SDS011;3530;52.832;10.680;2023-04-25T08:37:23;5.28;;;2.70;;
6979;SDS011;3530;52.832;10.680;2023-04-25T08:40:11;9.38;;;3.40;;
6979;SDS011;3530;52.832;10.680;2023-04-25T08:42:57;7.97;;;3.58;;
6979;SDS011;3530;52.832;10.680;2023-04-25T08:45:44;7.43;;;2.90;;
6979;SDS011;3530;52.832;10.680;2023-04-25T08:48:32;8.15;;;3.03;;
6979;SDS011;3530;52.832;10.680;2023-04-25T08:51:21;7.55;;;3.63;;
6979;SDS011;3530;52.832;10.680;2023-04-25T08:54:11;3.13;;;2.88;;
6979;SDS011;3530;52.832;10.680;2023-04-25T08:57:01;7.60;;;3.13;;
6979;SDS011;3530;52.832;10.680;2023-04-25T08:59:47;9.10;;;2.58;;
6979;SDS011;3530;52.832;10.680;2023-04-25T09:02:34;5.57;;;2.90;;
6979;SDS011;3530;52.832;10.680;2023-04-25T09:05:20;5.40;;;3.38;;
6979;SDS011;3530;52.832;10.680;2023-04-25T09:08:08;3.05;;;2.40;;
6979;SDS011;3530;52.832;10.680;2023-04-25T09:10:53;5.32;;;2.75;;
6979;SDS011;3530;52.832;10.680;2023-04-25T09:13:39;8.95;;;3.15;;
6979;SDS011;3530;52.832;10.680;2023-04-25T09:16:25;4.43;;;2.05;;
6979;SDS011;3530;52.832;10.680;2023-04-25T09:19:20;4.88;;;3.30;;
6979;SDS011;3530;52.832;10.680;2023-04-25T09:22:10;6.80;;;3.92;;
6979;SDS011;3530;52.832;10.680;2023-04-25T09:24:55;4.25;;;2.72;;
6979;SDS011;3530;52.832;10.680;2023-04-25T09:27:50;4.15;;;3.63;;
6979;SDS011;3530;52.832;10.680;2023-04-25T09:30:37;4.13;;;3.28;;
6979;SDS011;3530;52.832;10.680;2023-04-25T09:33:26;5.82;;;3.20;;
6979;SDS011;3530;52.832;10.680;2023-04-25T09:36:14;7.13;;;3.40;;
6979;SDS011;3530;52.832;10.680;2023-04-25T09:39:00;4.70;;;2.72;;
6979;SDS011;3530;52.832;10.680;2023-04-25T09:41:46;5.00;;;2.85;;
6979;SDS011;3530;52.832;10.680;2023-04-25T09:44:32;3.28;;;2.28;;
6979;SDS011;3530;52.832;10.680;2023-04-25T09:47:17;8.07;;;4.15;;
6979;SDS011;3530;52.832;10.680;2023-04-25T09:50:03;5.82;;;1.90;;
6979;SDS011;3530;52.832;10.680;2023-04-25T09:53:05;3.05;;;2.85;;
6979;SDS011;3530;52.832;10.680;2023-04-25T09:55:51;8.10;;;2.78;;
6979;SDS011;3530;52.832;10.680;2023-04-25T09:58:38;2.47;;;2.25;;
6979;SDS011;3530;52.832;10.680;2023-04-25T10:01:25;3.22;;;1.63;;
6979;SDS011;3530;52.832;10.680;2023-04-25T10:04:11;3.38;;;1.90;;
6979;SDS011;3530;52.832;10.680;2023-04-25T10:06:57;3.92;;;1.92;;
6979;SDS011;3530;52.832;10.680;2023-04-25T10:09:43;2.13;;;2.03;;
6979;SDS011;3530;52.832;10.680;2023-04-25T10:12:31;6.38;;;1.98;;
6979;SDS011;3530;52.832;10.680;2023-04-25T10:15:18;8.98;;;2.30;;
6979;SDS011;3530;52.832;10.680;2023-04-25T10:18:04;3.50;;;1.73;;
6979;SDS011;3530;52.832;10.680;2023-04-25T10:20:50;5.30;;;2.75;;
6979;SDS011;3530;52.832;10.680;2023-04-25T10:23:36;5.30;;;2.05;;
6979;SDS011;3530;52.832;10.680;2023-04-25T10:26:22;3.08;;;2.13;;
6979;SDS011;3530;52.832;10.680;2023-04-25T10:29:08;3.08;;;1.80;;
6979;SDS011;3530;52.832;10.680;2023-04-25T10:31:54;1.42;;;1.25;;
6979;SDS011;3530;52.832;10.680;2023-04-25T10:34:41;2.05;;;1.73;;
6979;SDS011;3530;52.832;10.680;2023-04-25T10:37:28;6.15;;;3.20;;
6979;SDS011;3530;52.832;10.680;2023-04-25T10:40:15;5.03;;;2.53;;
6979;SDS011;3530;52.832;10.680;2023-04-25T10:46:15;1.80;;;1.73;;
6979;SDS011;3530;52.832;10.680;2023-04-25T10:49:05;5.45;;;2.38;;
6979;SDS011;3530;52.832;10.680;2023-04-25T10:51:50;1.88;;;1.75;;
6979;SDS011;3530;52.832;10.680;2023-04-25T10:54:40;4.50;;;2.20;;
6979;SDS011;3530;52.832;10.680;2023-04-25T10:57:27;3.70;;;1.83;;
6979;SDS011;3530;52.832;10.680;2023-04-25T11:00:16;1.83;;;1.70;;
6979;SDS011;3530;52.832;10.680;2023-04-25T11:03:03;8.27;;;1.50;;
6979;SDS011;3530;52.832;10.680;2023-04-25T11:05:49;4.82;;;1.88;;
6979;SDS011;3530;52.832;10.680;2023-04-25T11:08:49;1.73;;;1.42;;
6979;SDS011;3530;52.832;10.680;2023-04-25T11:11:36;2.55;;;1.50;;
6979;SDS011;3530;52.832;10.680;2023-04-25T11:14:22;3.65;;;1.95;;
6979;SDS011;3530;52.832;10.680;2023-04-25T11:17:08;3.50;;;1.75;;
6979;SDS011;3530;52.832;10.680;2023-04-25T11:19:54;1.52;;;1.42;;
6979;SDS011;3530;52.832;10.680;2023-04-25T11:22:41;3.15;;;1.48;;
6979;SDS011;3530;52.832;10.680;2023-04-25T11:25:27;1.70;;;1.60;;
6979;SDS011;3530;52.832;10.680;2023-04-25T11:28:13;3.10;;;1.75;;
6979;SDS011;3530;52.832;10.680;2023-04-25T11:31:07;1.77;;;1.67;;
6979;SDS011;3530;52.832;10.680;2023-04-25T11:33:58;3.55;;;1.92;;
6979;SDS011;3530;52.832;10.680;2023-04-25T11:36:44;5.15;;;1.77;;
6979;SDS011;3530;52.832;10.680;2023-04-25T11:39:30;2.80;;;1.77;;
6979;SDS011;3530;52.832;10.680;2023-04-25T11:42:16;1.80;;;1.70;;
6979;SDS011;3530;52.832;10.680;2023-04-25T11:45:02;3.78;;;1.80;;
6979;SDS011;3530;52.832;10.680;2023-04-25T11:47:49;1.88;;;1.58;;
6979;SDS011;3530;52.832;10.680;2023-04-25T11:50:34;5.57;;;1.90;;
6979;SDS011;3530;52.832;10.680;2023-04-25T11:53:20;2.83;;;1.85;;
6979;SDS011;3530;52.832;10.680;2023-04-25T11:56:09;5.10;;;1.63;;
6979;SDS011;3530;52.832;10.680;2023-04-25T12:01:48;3.95;;;1.90;;
6979;SDS011;3530;52.832;10.680;2023-04-25T12:04:35;2.63;;;1.80;;
6979;SDS011;3530;52.832;10.680;2023-04-25T12:07:20;7.63;;;2.20;;
6979;SDS011;3530;52.832;10.680;2023-04-25T12:10:08;3.65;;;1.83;;
6979;SDS011;3530;52.832;10.680;2023-04-25T12:12:58;5.25;;;2.22;;
6979;SDS011;3530;52.832;10.680;2023-04-25T12:15:43;1.85;;;1.60;;
6979;SDS011;3530;52.832;10.680;2023-04-25T12:18:29;7.10;;;2.17;;
6979;SDS011;3530;52.832;10.680;2023-04-25T12:21:15;4.07;;;1.67;;
6979;SDS011;3530;52.832;10.680;2023-04-25T12:27:03;2.28;;;1.40;;
6979;SDS011;3530;52.832;10.680;2023-04-25T12:29:56;1.42;;;1.33;;
6979;SDS011;3530;52.832;10.680;2023-04-25T12:32:42;2.97;;;1.45;;
6979;SDS011;3530;52.832;10.680;2023-04-25T12:35:28;2.97;;;1.63;;
6979;SDS011;3530;52.832;10.680;2023-04-25T12:38:20;2.92;;;1.70;;
6979;SDS011;3530;52.832;10.680;2023-04-25T12:41:09;3.63;;;1.40;;
6979;SDS011;3530;52.832;10.680;2023-04-25T12:43:55;1.35;;;1.35;;
6979;SDS011;3530;52.832;10.680;2023-04-25T12:46:41;4.30;;;1.30;;
6979;SDS011;3530;52.832;10.680;2023-04-25T12:49:27;3.13;;;1.25;;
6979;SDS011;3530;52.832;10.680;2023-04-25T12:52:12;1.52;;;1.52;;
6979;SDS011;3530;52.832;10.680;2023-04-25T12:54:58;1.63;;;1.27;;
6979;SDS011;3530;52.832;10.680;2023-04-25T12:57:44;1.27;;;1.17;;
6979;SDS011;3530;52.832;10.680;2023-04-25T13:00:30;1.35;;;1.23;;
6979;SDS011;3530;52.832;10.680;2023-04-25T13:03:15;1.23;;;1.23;;
6979;SDS011;3530;52.832;10.680;2023-04-25T13:06:01;5.53;;;1.50;;
6979;SDS011;3530;52.832;10.680;2023-04-25T13:08:47;1.20;;;1.20;;
6979;SDS011;3530;52.832;10.680;2023-04-25T13:11:33;1.35;;;1.25;;
6979;SDS011;3530;52.832;10.680;2023-04-25T13:14:18;2.63;;;1.33;;
6979;SDS011;3530;52.832;10.680;2023-04-25T13:17:04;1.50;;;1.33;;
6979;SDS011;3530;52.832;10.680;2023-04-25T13:19:50;3.03;;;1.35;;
6979;SDS011;3530;52.832;10.680;2023-04-25T13:22:37;2.53;;;1.67;;
6979;SDS011;3530;52.832;10.680;2023-04-25T13:25:23;1.60;;;1.48;;
6979;SDS011;3530;52.832;10.680;2023-04-25T13:28:09;2.38;;;1.42;;
6979;SDS011;3530;52.832;10.680;2023-04-25T13:30:54;2.70;;;1.80;;
6979;SDS011;3530;52.832;10.680;2023-04-25T13:33:40;2.60;;;1.63;;
6979;SDS011;3530;52.832;10.680;2023-04-25T13:36:26;1.50;;;1.40;;
6979;SDS011;3530;52.832;10.680;2023-04-25T13:39:13;7.40;;;1.40;;
6979;SDS011;3530;52.832;10.680;2023-04-25T13:41:58;4.32;;;1.55;;
6979;SDS011;3530;52.832;10.680;2023-04-25T13:44:44;4.03;;;1.20;;
6979;SDS011;3530;52.832;10.680;2023-04-25T13:47:30;1.70;;;1.42;;
6979;SDS011;3530;52.832;10.680;2023-04-25T13:50:16;1.50;;;1.40;;
6979;SDS011;3530;52.832;10.680;2023-04-25T13:53:02;3.38;;;1.55;;
6979;SDS011;3530;52.832;10.680;2023-04-25T13:55:47;1.42;;;1.40;;
6979;SDS011;3530;52.832;10.680;2023-04-25T13:58:33;1.40;;;1.17;;
6979;SDS011;3530;52.832;10.680;2023-04-25T14:01:19;1.50;;;1.40;;
6979;SDS011;3530;52.832;10.680;2023-04-25T14:04:06;2.22;;;1.88;;
6979;SDS011;3530;52.832;10.680;2023-04-25T14:06:51;2.47;;;1.85;;
6979;SDS011;3530;52.832;10.680;2023-04-25T14:09:37;2.13;;;1.33;;
6979;SDS011;3530;52.832;10.680;2023-04-25T14:12:23;3.97;;;2.13;;
6979;SDS011;3530;52.832;10.680;2023-04-25T14:15:09;3.13;;;1.23;;
6979;SDS011;3530;52.832;10.680;2023-04-25T14:17:56;1.73;;;1.63;;
6979;SDS011;3530;52.832;10.680;2023-04-25T14:20:41;5.25;;;1.50;;
6979;SDS011;3530;52.832;10.680;2023-04-25T14:23:27;2.78;;;1.33;;
6979;SDS011;3530;52.832;10.680;2023-04-25T14:26:13;2.42;;;1.30;;
6979;SDS011;3530;52.832;10.680;2023-04-25T14:28:58;5.65;;;1.50;;
6979;SDS011;3530;52.832;10.680;2023-04-25T14:31:44;1.48;;;1.27;;
6979;SDS011;3530;52.832;10.680;2023-04-25T14:34:30;3.17;;;1.90;;
6979;SDS011;3530;52.832;10.680;2023-04-25T14:37:15;4.38;;;2.20;;
6979;SDS011;3530;52.832;10.680;2023-04-25T14:40:01;4.18;;;2.00;;
6979;SDS011;3530;52.832;10.680;2023-04-25T14:42:47;3.95;;;2.17;;
6979;SDS011;3530;52.832;10.680;2023-04-25T14:45:33;3.85;;;1.60;;
6979;SDS011;3530;52.832;10.680;2023-04-25T14:48:18;3.53;;;1.50;;
6979;SDS011;3530;52.832;10.680;2023-04-25T14:51:04;5.18;;;2.47;;
6979;SDS011;3530;52.832;10.680;2023-04-25T14:53:50;2.13;;;1.52;;
6979;SDS011;3530;52.832;10.680;2023-04-25T14:56:36;5.15;;;1.30;;
6979;SDS011;3530;52.832;10.680;2023-04-25T14:59:21;1.92;;;1.52;;
6979;SDS011;3530;52.832;10.680;2023-04-25T15:02:07;4.63;;;1.50;;
6979;SDS011;3530;52.832;10.680;2023-04-25T15:04:53;7.35;;;4.18;;
6979;SDS011;3530;52.832;10.680;2023-04-25T15:07:39;3.17;;;1.88;;
6979;SDS011;3530;52.832;10.680;2023-04-25T15:10:25;1.98;;;1.85;;
6979;SDS011;3530;52.832;10.680;2023-04-25T15:13:11;2.80;;;2.60;;
6979;SDS011;3530;52.832;10.680;2023-04-25T15:15:56;2.45;;;1.58;;
6979;SDS011;3530;52.832;10.680;2023-04-25T15:18:42;3.60;;;1.67;;
6979;SDS011;3530;52.832;10.680;2023-04-25T15:21:28;2.58;;;2.38;;
6979;SDS011;3530;52.832;10.680;2023-04-25T15:24:13;1.50;;;1.50;;
6979;SDS011;3530;52.832;10.680;2023-04-25T15:27:00;3.08;;;1.60;;
6979;SDS011;3530;52.832;10.680;2023-04-25T15:29:46;2.78;;;2.10;;
6979;SDS011;3530;52.832;10.680;2023-04-25T15:32:31;2.97;;;1.95;;
6979;SDS011;3530;52.832;10.680;2023-04-25T15:35:17;4.00;;;1.90;;
6979;SDS011;3530;52.832;10.680;2023-04-25T15:38:03;3.20;;;1.63;;
6979;SDS011;3530;52.832;10.680;2023-04-25T15:40:48;2.15;;;1.70;;
6979;SDS011;3530;52.832;10.680;2023-04-25T15:43:34;2.58;;;1.45;;
6979;SDS011;3530;52.832;10.680;2023-04-25T15:46:23;1.50;;;1.42;;
6979;SDS011;3530;52.832;10.680;2023-04-25T15:49:08;5.38;;;1.95;;
6979;SDS011;3530;52.832;10.680;2023-04-25T15:51:55;2.58;;;1.60;;
6979;SDS011;3530;52.832;10.680;2023-04-25T15:54:40;1.25;;;1.20;;
6979;SDS011;3530;52.832;10.680;2023-04-25T15:57:26;1.33;;;1.20;;
6979;SDS011;3530;52.832;10.680;2023-04-25T16:00:12;3.53;;;1.30;;
6979;SDS011;3530;52.832;10.680;2023-04-25T16:02:59;3.53;;;1.73;;
6979;SDS011;3530;52.832;10.680;2023-04-25T16:05:45;1.75;;;1.65;;
6979;SDS011;3530;52.832;10.680;2023-04-25T16:08:30;1.40;;;1.30;;
6979;SDS011;3530;52.832;10.680;2023-04-25T16:11:19;2.15;;;1.70;;
6979;SDS011;3530;52.832;10.680;2023-04-25T16:14:05;1.00;;;1.00;;
6979;SDS011;3530;52.832;10.680;2023-04-25T16:16:51;1.20;;;1.20;;
6979;SDS011;3530;52.832;10.680;2023-04-25T16:19:37;4.65;;;2.50;;
6979;SDS011;3530;52.832;10.680;2023-04-25T16:22:23;5.97;;;2.75;;
6979;SDS011;3530;52.832;10.680;2023-04-25T16:25:08;3.95;;;1.73;;
6979;SDS011;3530;52.832;10.680;2023-04-25T16:27:54;11.52;;;2.80;;
6979;SDS011;3530;52.832;10.680;2023-04-25T16:30:40;3.80;;;2.10;;
6979;SDS011;3530;52.832;10.680;2023-04-25T16:33:26;5.40;;;3.97;;
6979;SDS011;3530;52.832;10.680;2023-04-25T16:36:11;3.58;;;2.75;;
6979;SDS011;3530;52.832;10.680;2023-04-25T16:38:57;2.72;;;2.50;;
6979;SDS011;3530;52.832;10.680;2023-04-25T16:41:45;2.10;;;1.92;;
6979;SDS011;3530;52.832;10.680;2023-04-25T16:44:30;6.57;;;2.20;;
6979;SDS011;3530;52.832;10.680;2023-04-25T16:47:16;4.50;;;2.05;;
6979;SDS011;3530;52.832;10.680;2023-04-25T16:50:02;6.10;;;2.72;;
6979;SDS011;3530;52.832;10.680;2023-04-25T16:52:48;3.83;;;2.15;;
6979;SDS011;3530;52.832;10.680;2023-04-25T16:55:34;4.80;;;2.65;;
6979;SDS011;3530;52.832;10.680;2023-04-25T16:58:20;2.00;;;1.90;;
6979;SDS011;3530;52.832;10.680;2023-04-25T17:01:07;5.38;;;1.90;;
6979;SDS011;3530;52.832;10.680;2023-04-25T17:03:53;1.45;;;1.35;;